PDT,Max TemperatureF,Mean TemperatureF,Min TemperatureF,Max Dew PointF,MeanDew PointF,Min DewpointF,Max Humidity, Mean Humidity, Min Humidity, Max Sea Level PressureIn, Mean Sea Level PressureIn, Min Sea Level PressureIn, Max VisibilityMiles, Mean VisibilityMiles, Min VisibilityMiles, Max Wind SpeedMPH, Mean Wind SpeedMPH, Max Gust SpeedMPH,PrecipitationIn, CloudCover, Events, WindDirDegrees
2013-8-1,88,73,59,51,49,48,69,47,26,30.01,29.95,29.90,10,10,10,16,10,24,0.00,0,,217
2013-8-2,91,71,53,54,50,45,83,47,22,29.95,29.89,29.83,10,10,10,10,4,16,0.00,0,,205
2013-8-3,91,72,55,55,51,46,84,53,22,29.94,29.89,29.84,10,10,10,12,8,,0.00,0,,217
2013-8-4,89,72,55,52,51,49,83,55,26,29.96,29.92,29.87,10,10,10,13,8,17,0.00,0,,218
2013-8-5,89,70,52,52,48,42,86,53,21,30.00,29.93,29.88,10,10,10,13,7,17,0.00,0,,210
2013-8-6,88,69,54,52,50,48,86,58,29,29.99,29.94,29.90,10,10,9,17,8,28,0.00,0,,216
2013-8-7,80,68,57,55,52,51,83,61,42,30.05,30.00,29.96,10,10,10,16,8,24,0.00,0,,212
2013-8-8,82,68,55,54,52,50,90,60,35,30.00,29.95,29.88,10,10,10,14,5,20,0.00,0,,212
2013-8-9,82,67,52,54,52,49,89,62,37,29.94,29.90,29.87,10,10,10,15,8,22,0.00,0,,218
2013-8-10,87,70,55,56,54,51,87,60,36,30.02,29.96,29.93,10,10,10,13,7,22,0.00,0,,219
2013-8-11,90,72,55,56,53,46,90,55,27,30.00,29.94,29.87,10,10,10,10,4,16,0.00,0,,210
2013-8-12,91,72,55,54,50,42,87,51,19,29.97,29.92,29.88,10,10,10,12,5,16,0.00,0,,219
2013-8-13,96,75,55,53,48,41,80,45,15,29.98,29.92,29.85,10,10,10,10,4,,0.00,0,,220
2013-8-14,95,75,57,57,51,48,72,45,21,29.94,29.88,29.83,10,10,10,12,6,18,0.00,0,,202
2013-8-15,96,78,62,60,57,54,84,53,25,29.93,29.88,29.85,10,10,10,10,5,16,0.00,0,,208
2013-8-16,97,80,63,62,56,47,87,51,23,29.96,29.91,29.88,10,10,10,14,6,17,0.00,0,,214
2013-8-17,91,76,63,58,56,52,73,52,32,29.95,29.88,29.79,10,10,10,9,4,,0.00,0,,220
2013-8-18,100,80,61,60,57,55,81,49,25,29.87,29.81,29.74,10,10,10,9,2,,0.00,0,,178
2013-8-19,104,85,68,61,57,55,65,43,20,29.87,29.80,29.74,10,10,9,10,1,,0.00,0,,172
2013-8-20,95,81,69,58,56,46,65,45,29,29.85,29.79,29.74,10,10,10,12,7,,0.00,0,,213
2013-8-21,91,78,64,55,51,39,70,44,16,29.88,29.83,29.79,10,10,10,15,7,20,0.00,0,,210
2013-8-22,88,74,60,53,50,47,69,49,26,29.90,29.85,29.81,10,10,10,13,8,20,0.00,0,,218
2013-8-23,91,72,54,54,52,45,86,55,20,29.90,29.82,29.73,10,10,10,10,5,18,0.00,0,,217
2013-8-24,90,75,60,55,52,49,72,50,24,29.84,29.80,29.76,10,10,10,15,7,24,0.00,0,,218
2013-8-25,86,75,64,58,55,46,75,54,35,29.91,29.88,29.83,10,10,10,20,9,26,0.00,0,,215
2013-8-26,88,74,60,56,54,51,86,56,33,29.98,29.91,29.86,10,10,10,16,8,22,0.00,0,,206
2013-8-27,93,73,55,53,51,45,80,50,20,29.87,29.83,29.76,10,10,10,13,3,17,0.00,0,,208
2013-8-28,93,76,60,59,55,51,78,51,24,29.88,29.84,29.80,10,10,10,13,6,20,0.00,0,,218
2013-8-29,93,76,59,60,56,49,87,54,22,30.01,29.95,29.88,10,10,10,12,7,17,0.00,0,,203
2013-8-30,97,77,57,60,55,49,87,51,22,30.03,29.95,29.87,10,10,10,9,2,16,0.00,0,,207
2013-8-31,93,76,60,56,51,45,75,45,20,29.94,29.88,29.83,10,10,10,15,5,20,0.00,0,,203